International Virtual Aviation Organisation

Russian Federation and Kazakhstan MCD

 
UHWW 032000Z 02002MPS 9999 NSC M16/M18 Q1026 R25L/810160 NOSIG RMK QFE769
QNH:(hPa/inHg/mmHg)1026 / 30.3 / 770
QFE:(hPa/inHg/mmHg)1024 / 30.23 / 768
Temperature-16
Dew Point-18
Visibility> 10000
Weather
Cloud Cover
Transition Height1800 m./6000 ft.
Transition LevelFL70
SQUAWK